BST,Max TemperatureF,Mean TemperatureF,Min TemperatureF,Max Dew PointF,MeanDew PointF,Min DewpointF,Max Humidity, Mean Humidity, Min Humidity, Max Sea Level PressureIn, Mean Sea Level PressureIn, Min Sea Level PressureIn, Max VisibilityMiles, Mean VisibilityMiles, Min VisibilityMiles, Max Wind SpeedMPH, Mean Wind SpeedMPH, Max Gust SpeedMPH,PrecipitationIn, CloudCover, Events, WindDirDegrees
2013-9-1,61,56,52,55,50,46,82,73,55,30.20,30.11,30.01,19,8,6,29,21,41,0.00,5,,265
2013-9-2,75,66,57,61,57,55,94,74,53,30.18,30.06,29.98,6,6,6,29,21,37,0.00,3,,266
2013-9-3,75,64,53,61,54,48,94,73,35,30.22,30.19,30.15,6,6,6,23,14,,0.00,3,,255
2013-9-4,71,61,51,54,50,46,100,68,33,30.17,30.02,29.89,16,7,6,18,10,,0.00,4,,225
2013-9-5,63,55,46,52,49,45,94,77,45,29.92,29.88,29.86,19,7,6,14,7,,0.00,6,,273
2013-9-6,59,52,45,47,45,39,93,76,48,29.93,29.90,29.86,19,7,6,17,7,,0.35,7,Rain,27
2013-9-7,59,52,46,54,49,45,94,85,64,29.95,29.84,29.74,16,7,6,18,13,31,0.08,5,Rain,108
2013-9-8,57,47,37,50,45,37,100,82,55,29.99,29.96,29.92,19,8,6,15,5,,0.00,2,Fog,74
2013-9-9,61,53,45,51,48,45,100,86,62,30.13,30.02,29.95,16,7,6,10,3,,0.04,6,Rain,304
2013-9-10,65,56,46,49,45,42,87,64,37,30.22,30.16,30.12,6,6,6,20,9,,0.00,5,,321
2013-9-11,60,56,51,56,52,46,94,82,66,30.20,30.10,30.06,19,7,6,9,6,,0.08,7,Rain,250
2013-9-12,67,60,52,59,55,51,100,85,53,30.07,29.96,29.86,12,6,0,18,6,,0.02,6,Fog-Rain,259
2013-9-13,54,51,46,54,46,43,94,81,59,30.09,30.04,29.95,6,6,2,8,4,,0.00,7,Rain,199
2013-9-14,61,52,44,45,43,39,93,71,35,30.04,30.00,29.89,6,6,6,13,7,,0.00,4,,280
2013-9-15,61,52,41,57,45,37,94,78,48,29.87,29.35,29.12,9,6,3,33,17,41,0.08,5,Rain,248
2013-9-16,58,48,39,41,39,36,93,72,45,29.26,29.23,29.21,6,6,6,24,16,,0.00,3,,261
2013-9-17,59,52,44,45,41,37,81,67,51,29.36,29.26,29.21,6,6,6,21,14,32,0.01,3,Rain,267
2013-9-18,59,48,38,43,39,36,93,68,35,29.68,29.49,29.36,6,6,6,20,11,,0.00,2,,268
2013-9-19,50,46,41,50,46,40,100,93,82,29.74,29.61,29.53,16,6,3,14,8,,0.39,7,Rain,189
2013-9-20,62,52,43,50,46,42,100,79,56,30.01,29.91,29.77,19,7,6,22,9,,0.00,5,,256
2013-9-21,60,56,51,57,52,47,88,80,69,30.07,30.03,29.98,19,8,6,18,14,,0.00,6,,250
2013-9-22,70,64,57,57,56,54,94,75,46,30.25,30.15,30.04,19,8,6,28,21,,0.00,2,,260
2013-9-23,65,57,49,57,53,50,100,85,65,30.25,30.20,30.09,19,7,6,14,8,,0.01,3,Fog,259
2013-9-24,56,50,44,55,53,45,100,97,93,30.10,30.03,29.95,12,2,0,9,5,,0.01,7,Fog-Rain,65
2013-9-25,54,49,44,55,49,41,100,90,67,30.06,29.97,29.92,16,4,0,15,8,,0.02,7,Fog-Rain,53
2013-9-26,56,46,36,50,44,37,100,85,62,30.13,30.08,30.06,19,7,6,14,6,,0.00,5,,93
2013-9-27,58,54,50,54,52,50,100,91,79,30.06,29.99,29.92,19,7,5,5,2,,0.01,7,Rain,54
2013-9-28,60,55,50,55,52,50,100,91,75,29.93,29.89,29.86,9,5,0,13,4,,0.00,6,Fog,87
2013-9-29,58,55,52,52,51,48,94,85,77,29.98,29.95,29.92,19,8,6,16,12,,0.00,4,,114
2013-9-30,57,55,53,52,50,48,88,81,65,29.95,29.90,29.86,16,8,6,18,14,,0.00,6,,111